sensor_id;sensor_type;location;lat;lon;timestamp;P1;durP1;ratioP1;P2;durP2;ratioP2
38611;SDS011;24368;52.156;20.788;2023-03-24T00:02:44;6.20;;;4.50;;
38611;SDS011;24368;52.156;20.788;2023-03-24T00:07:47;5.30;;;4.40;;
38611;SDS011;24368;52.156;20.788;2023-03-24T00:12:49;4.90;;;4.40;;
38611;SDS011;24368;52.156;20.788;2023-03-24T00:17:52;5.30;;;4.80;;
38611;SDS011;24368;52.156;20.788;2023-03-24T00:22:56;4.80;;;4.20;;
38611;SDS011;24368;52.156;20.788;2023-03-24T00:27:59;5.30;;;4.80;;
38611;SDS011;24368;52.156;20.788;2023-03-24T00:33:01;5.90;;;4.10;;
38611;SDS011;24368;52.156;20.788;2023-03-24T00:38:04;6.40;;;4.70;;
38611;SDS011;24368;52.156;20.788;2023-03-24T00:43:06;6.40;;;4.60;;
38611;SDS011;24368;52.156;20.788;2023-03-24T00:48:08;4.60;;;4.10;;
38611;SDS011;24368;52.156;20.788;2023-03-24T00:53:12;4.80;;;4.30;;
38611;SDS011;24368;52.156;20.788;2023-03-24T00:58:17;7.50;;;4.10;;
38611;SDS011;24368;52.156;20.788;2023-03-24T01:03:20;5.80;;;4.60;;
38611;SDS011;24368;52.156;20.788;2023-03-24T01:08:27;5.40;;;4.40;;
38611;SDS011;24368;52.156;20.788;2023-03-24T01:13:29;4.60;;;3.90;;
38611;SDS011;24368;52.156;20.788;2023-03-24T01:18:32;4.80;;;4.20;;
38611;SDS011;24368;52.156;20.788;2023-03-24T01:23:35;5.10;;;4.30;;
38611;SDS011;24368;52.156;20.788;2023-03-24T01:28:38;5.10;;;3.90;;
38611;SDS011;24368;52.156;20.788;2023-03-24T01:33:41;4.80;;;3.80;;
38611;SDS011;24368;52.156;20.788;2023-03-24T01:38:43;4.20;;;3.70;;
38611;SDS011;24368;52.156;20.788;2023-03-24T01:43:44;4.00;;;3.60;;
38611;SDS011;24368;52.156;20.788;2023-03-24T01:58:59;5.10;;;3.80;;
38611;SDS011;24368;52.156;20.788;2023-03-24T02:04:05;7.30;;;4.10;;
38611;SDS011;24368;52.156;20.788;2023-03-24T02:09:08;4.20;;;3.80;;
38611;SDS011;24368;52.156;20.788;2023-03-24T02:14:11;4.00;;;3.50;;
38611;SDS011;24368;52.156;20.788;2023-03-24T02:30:22;4.60;;;3.80;;
38611;SDS011;24368;52.156;20.788;2023-03-24T02:41:21;4.50;;;3.60;;
38611;SDS011;24368;52.156;20.788;2023-03-24T02:57:48;5.60;;;4.50;;
38611;SDS011;24368;52.156;20.788;2023-03-24T03:03:21;4.60;;;3.80;;
38611;SDS011;24368;52.156;20.788;2023-03-24T03:08:29;5.30;;;4.10;;
38611;SDS011;24368;52.156;20.788;2023-03-24T03:13:38;4.50;;;4.00;;
38611;SDS011;24368;52.156;20.788;2023-03-24T03:18:52;4.40;;;3.80;;
38611;SDS011;24368;52.156;20.788;2023-03-24T03:24:06;4.30;;;3.90;;
38611;SDS011;24368;52.156;20.788;2023-03-24T03:29:15;5.10;;;4.50;;
38611;SDS011;24368;52.156;20.788;2023-03-24T03:34:28;7.00;;;3.90;;
38611;SDS011;24368;52.156;20.788;2023-03-24T03:39:43;4.70;;;4.20;;
38611;SDS011;24368;52.156;20.788;2023-03-24T03:44:50;4.50;;;4.10;;
38611;SDS011;24368;52.156;20.788;2023-03-24T03:49:52;6.20;;;4.60;;
38611;SDS011;24368;52.156;20.788;2023-03-24T03:54:54;5.00;;;4.30;;
38611;SDS011;24368;52.156;20.788;2023-03-24T03:59:59;6.20;;;4.90;;
38611;SDS011;24368;52.156;20.788;2023-03-24T04:05:18;7.00;;;5.40;;
38611;SDS011;24368;52.156;20.788;2023-03-24T04:10:41;9.30;;;6.60;;
38611;SDS011;24368;52.156;20.788;2023-03-24T04:16:12;6.50;;;5.50;;
38611;SDS011;24368;52.156;20.788;2023-03-24T04:21:43;8.30;;;6.20;;
38611;SDS011;24368;52.156;20.788;2023-03-24T04:26:55;5.70;;;4.20;;
38611;SDS011;24368;52.156;20.788;2023-03-24T04:32:09;6.30;;;4.40;;
38611;SDS011;24368;52.156;20.788;2023-03-24T04:37:21;6.30;;;4.60;;
38611;SDS011;24368;52.156;20.788;2023-03-24T04:42:40;6.10;;;5.60;;
38611;SDS011;24368;52.156;20.788;2023-03-24T04:47:54;10.00;;;7.40;;
38611;SDS011;24368;52.156;20.788;2023-03-24T04:52:59;9.10;;;7.90;;
38611;SDS011;24368;52.156;20.788;2023-03-24T04:58:01;9.00;;;6.90;;
38611;SDS011;24368;52.156;20.788;2023-03-24T05:03:03;6.80;;;6.00;;
38611;SDS011;24368;52.156;20.788;2023-03-24T05:08:04;7.50;;;6.60;;
38611;SDS011;24368;52.156;20.788;2023-03-24T05:13:07;9.00;;;7.30;;
38611;SDS011;24368;52.156;20.788;2023-03-24T05:18:09;8.60;;;7.10;;
38611;SDS011;24368;52.156;20.788;2023-03-24T05:23:11;9.90;;;7.10;;
38611;SDS011;24368;52.156;20.788;2023-03-24T05:28:13;8.20;;;7.30;;
38611;SDS011;24368;52.156;20.788;2023-03-24T05:33:15;8.50;;;7.10;;
38611;SDS011;24368;52.156;20.788;2023-03-24T05:38:17;8.40;;;7.50;;
38611;SDS011;24368;52.156;20.788;2023-03-24T05:43:19;8.30;;;6.90;;
38611;SDS011;24368;52.156;20.788;2023-03-24T05:48:21;8.40;;;7.20;;
38611;SDS011;24368;52.156;20.788;2023-03-24T05:53:23;9.30;;;7.70;;
38611;SDS011;24368;52.156;20.788;2023-03-24T05:58:25;8.60;;;7.60;;
38611;SDS011;24368;52.156;20.788;2023-03-24T06:03:27;8.00;;;7.20;;
38611;SDS011;24368;52.156;20.788;2023-03-24T06:08:34;11.70;;;8.70;;
38611;SDS011;24368;52.156;20.788;2023-03-24T06:13:36;11.00;;;8.30;;
38611;SDS011;24368;52.156;20.788;2023-03-24T06:18:38;10.40;;;7.10;;
38611;SDS011;24368;52.156;20.788;2023-03-24T06:23:44;8.50;;;7.30;;
38611;SDS011;24368;52.156;20.788;2023-03-24T06:28:46;8.40;;;7.60;;
38611;SDS011;24368;52.156;20.788;2023-03-24T06:33:52;9.90;;;8.00;;
38611;SDS011;24368;52.156;20.788;2023-03-24T06:38:54;12.10;;;7.60;;
38611;SDS011;24368;52.156;20.788;2023-03-24T06:43:56;9.80;;;7.80;;
38611;SDS011;24368;52.156;20.788;2023-03-24T06:48:58;8.70;;;7.20;;
38611;SDS011;24368;52.156;20.788;2023-03-24T06:54:00;8.80;;;6.90;;
38611;SDS011;24368;52.156;20.788;2023-03-24T06:59:03;7.50;;;6.60;;
38611;SDS011;24368;52.156;20.788;2023-03-24T07:04:05;6.60;;;6.00;;
38611;SDS011;24368;52.156;20.788;2023-03-24T07:09:07;7.10;;;5.80;;
38611;SDS011;24368;52.156;20.788;2023-03-24T07:14:09;7.70;;;5.30;;
38611;SDS011;24368;52.156;20.788;2023-03-24T07:19:11;6.80;;;6.00;;
38611;SDS011;24368;52.156;20.788;2023-03-24T07:24:13;7.40;;;5.90;;
38611;SDS011;24368;52.156;20.788;2023-03-24T07:29:15;6.50;;;5.70;;
38611;SDS011;24368;52.156;20.788;2023-03-24T07:34:17;6.10;;;5.40;;
38611;SDS011;24368;52.156;20.788;2023-03-24T07:39:19;7.40;;;5.90;;
38611;SDS011;24368;52.156;20.788;2023-03-24T07:44:21;5.40;;;4.90;;
38611;SDS011;24368;52.156;20.788;2023-03-24T07:49:23;6.50;;;5.80;;
38611;SDS011;24368;52.156;20.788;2023-03-24T07:54:25;6.10;;;5.20;;
38611;SDS011;24368;52.156;20.788;2023-03-24T07:59:27;5.10;;;4.60;;
38611;SDS011;24368;52.156;20.788;2023-03-24T08:04:29;6.00;;;4.90;;
38611;SDS011;24368;52.156;20.788;2023-03-24T08:09:32;6.30;;;5.20;;
38611;SDS011;24368;52.156;20.788;2023-03-24T08:14:34;6.90;;;5.10;;
38611;SDS011;24368;52.156;20.788;2023-03-24T08:19:36;5.10;;;4.60;;
38611;SDS011;24368;52.156;20.788;2023-03-24T08:24:38;6.10;;;5.50;;
38611;SDS011;24368;52.156;20.788;2023-03-24T08:29:40;7.20;;;5.80;;
38611;SDS011;24368;52.156;20.788;2023-03-24T08:34:41;8.70;;;7.90;;
38611;SDS011;24368;52.156;20.788;2023-03-24T08:39:43;7.50;;;6.60;;
38611;SDS011;24368;52.156;20.788;2023-03-24T08:44:45;7.30;;;6.00;;
38611;SDS011;24368;52.156;20.788;2023-03-24T08:49:47;7.40;;;5.50;;
38611;SDS011;24368;52.156;20.788;2023-03-24T08:54:49;9.30;;;7.70;;
38611;SDS011;24368;52.156;20.788;2023-03-24T08:59:51;9.40;;;7.90;;
38611;SDS011;24368;52.156;20.788;2023-03-24T09:04:53;8.80;;;7.80;;
38611;SDS011;24368;52.156;20.788;2023-03-24T09:09:56;7.40;;;6.60;;
38611;SDS011;24368;52.156;20.788;2023-03-24T09:14:58;7.10;;;6.40;;
38611;SDS011;24368;52.156;20.788;2023-03-24T09:20:00;9.40;;;7.40;;
38611;SDS011;24368;52.156;20.788;2023-03-24T09:25:02;7.80;;;6.60;;
38611;SDS011;24368;52.156;20.788;2023-03-24T09:30:05;7.40;;;6.30;;
38611;SDS011;24368;52.156;20.788;2023-03-24T09:35:08;8.50;;;6.10;;
38611;SDS011;24368;52.156;20.788;2023-03-24T09:40:26;5.70;;;5.20;;
38611;SDS011;24368;52.156;20.788;2023-03-24T09:45:38;5.50;;;4.70;;
38611;SDS011;24368;52.156;20.788;2023-03-24T09:50:50;6.10;;;5.50;;
38611;SDS011;24368;52.156;20.788;2023-03-24T09:56:00;6.90;;;5.10;;
38611;SDS011;24368;52.156;20.788;2023-03-24T10:01:11;6.00;;;5.40;;
38611;SDS011;24368;52.156;20.788;2023-03-24T10:06:17;5.60;;;5.00;;
38611;SDS011;24368;52.156;20.788;2023-03-24T10:16:29;5.60;;;5.00;;
38611;SDS011;24368;52.156;20.788;2023-03-24T10:21:39;6.20;;;4.90;;
38611;SDS011;24368;52.156;20.788;2023-03-24T10:27:04;5.60;;;4.80;;
38611;SDS011;24368;52.156;20.788;2023-03-24T10:32:18;6.50;;;5.90;;
38611;SDS011;24368;52.156;20.788;2023-03-24T10:37:22;7.50;;;4.90;;
38611;SDS011;24368;52.156;20.788;2023-03-24T10:42:24;5.10;;;4.50;;
38611;SDS011;24368;52.156;20.788;2023-03-24T10:47:31;6.70;;;4.60;;
38611;SDS011;24368;52.156;20.788;2023-03-24T10:52:38;6.00;;;4.70;;
38611;SDS011;24368;52.156;20.788;2023-03-24T10:57:44;4.70;;;4.30;;
38611;SDS011;24368;52.156;20.788;2023-03-24T11:13:18;6.00;;;5.50;;
38611;SDS011;24368;52.156;20.788;2023-03-24T11:18:28;6.60;;;4.90;;
38611;SDS011;24368;52.156;20.788;2023-03-24T11:23:47;4.30;;;3.90;;
38611;SDS011;24368;52.156;20.788;2023-03-24T11:28:51;5.90;;;5.00;;
38611;SDS011;24368;52.156;20.788;2023-03-24T11:33:59;5.30;;;4.60;;
38611;SDS011;24368;52.156;20.788;2023-03-24T11:39:27;5.80;;;5.00;;
38611;SDS011;24368;52.156;20.788;2023-03-24T11:44:41;7.90;;;6.20;;
38611;SDS011;24368;52.156;20.788;2023-03-24T11:55:15;3.90;;;3.60;;
38611;SDS011;24368;52.156;20.788;2023-03-24T12:05:57;7.40;;;3.80;;
38611;SDS011;24368;52.156;20.788;2023-03-24T12:26:35;4.00;;;3.40;;
38611;SDS011;24368;52.156;20.788;2023-03-24T12:42:24;3.90;;;3.50;;
38611;SDS011;24368;52.156;20.788;2023-03-24T13:03:57;3.00;;;2.70;;
38611;SDS011;24368;52.156;20.788;2023-03-24T13:09:06;3.20;;;2.90;;
38611;SDS011;24368;52.156;20.788;2023-03-24T13:25:48;3.40;;;2.90;;
38611;SDS011;24368;52.156;20.788;2023-03-24T13:31:10;5.30;;;2.80;;
38611;SDS011;24368;52.156;20.788;2023-03-24T13:36:36;3.30;;;3.00;;
38611;SDS011;24368;52.156;20.788;2023-03-24T13:41:48;3.00;;;2.70;;
38611;SDS011;24368;52.156;20.788;2023-03-24T13:46:59;2.90;;;2.60;;
38611;SDS011;24368;52.156;20.788;2023-03-24T13:52:20;3.30;;;2.60;;
38611;SDS011;24368;52.156;20.788;2023-03-24T13:57:28;2.80;;;2.60;;
38611;SDS011;24368;52.156;20.788;2023-03-24T14:13:02;2.40;;;2.10;;
38611;SDS011;24368;52.156;20.788;2023-03-24T14:24:01;2.50;;;2.30;;
38611;SDS011;24368;52.156;20.788;2023-03-24T14:28:57;3.60;;;3.00;;
38611;SDS011;24368;52.156;20.788;2023-03-24T15:04:00;3.00;;;1.80;;
38611;SDS011;24368;52.156;20.788;2023-03-24T15:09:24;3.00;;;2.10;;
38611;SDS011;24368;52.156;20.788;2023-03-24T15:14:26;3.70;;;2.10;;
38611;SDS011;24368;52.156;20.788;2023-03-24T15:19:28;3.90;;;3.10;;
38611;SDS011;24368;52.156;20.788;2023-03-24T15:24:33;3.20;;;2.00;;
38611;SDS011;24368;52.156;20.788;2023-03-24T15:29:40;3.70;;;1.80;;
38611;SDS011;24368;52.156;20.788;2023-03-24T15:34:49;2.50;;;2.20;;
38611;SDS011;24368;52.156;20.788;2023-03-24T15:39:53;4.30;;;3.90;;
38611;SDS011;24368;52.156;20.788;2023-03-24T15:44:55;2.70;;;2.50;;
38611;SDS011;24368;52.156;20.788;2023-03-24T15:50:26;3.10;;;2.80;;
38611;SDS011;24368;52.156;20.788;2023-03-24T15:55:35;2.90;;;2.60;;
38611;SDS011;24368;52.156;20.788;2023-03-24T16:00:37;4.70;;;2.80;;
38611;SDS011;24368;52.156;20.788;2023-03-24T16:05:47;3.40;;;3.10;;
38611;SDS011;24368;52.156;20.788;2023-03-24T16:10:55;3.20;;;2.70;;
38611;SDS011;24368;52.156;20.788;2023-03-24T16:21:20;4.70;;;4.20;;
38611;SDS011;24368;52.156;20.788;2023-03-24T16:26:25;5.30;;;4.00;;
38611;SDS011;24368;52.156;20.788;2023-03-24T16:31:31;5.90;;;3.60;;
38611;SDS011;24368;52.156;20.788;2023-03-24T16:36:35;4.30;;;3.90;;
38611;SDS011;24368;52.156;20.788;2023-03-24T16:41:38;5.20;;;4.10;;
38611;SDS011;24368;52.156;20.788;2023-03-24T16:46:39;5.90;;;4.60;;
38611;SDS011;24368;52.156;20.788;2023-03-24T16:51:43;4.70;;;4.30;;
38611;SDS011;24368;52.156;20.788;2023-03-24T16:56:46;5.30;;;4.70;;
38611;SDS011;24368;52.156;20.788;2023-03-24T17:01:50;6.40;;;5.80;;
38611;SDS011;24368;52.156;20.788;2023-03-24T17:06:52;7.30;;;5.60;;
38611;SDS011;24368;52.156;20.788;2023-03-24T17:11:55;8.60;;;6.80;;
38611;SDS011;24368;52.156;20.788;2023-03-24T17:16:59;8.10;;;6.30;;
38611;SDS011;24368;52.156;20.788;2023-03-24T17:22:03;7.70;;;6.50;;
38611;SDS011;24368;52.156;20.788;2023-03-24T17:27:16;7.90;;;6.90;;
38611;SDS011;24368;52.156;20.788;2023-03-24T17:32:19;8.80;;;7.20;;
38611;SDS011;24368;52.156;20.788;2023-03-24T17:37:21;8.00;;;6.60;;
38611;SDS011;24368;52.156;20.788;2023-03-24T17:42:24;8.80;;;6.80;;
38611;SDS011;24368;52.156;20.788;2023-03-24T17:47:28;8.00;;;6.20;;
38611;SDS011;24368;52.156;20.788;2023-03-24T17:52:30;7.40;;;6.60;;
38611;SDS011;24368;52.156;20.788;2023-03-24T17:57:32;7.30;;;6.60;;
38611;SDS011;24368;52.156;20.788;2023-03-24T18:02:34;7.70;;;6.30;;
38611;SDS011;24368;52.156;20.788;2023-03-24T18:07:37;6.40;;;5.80;;
38611;SDS011;24368;52.156;20.788;2023-03-24T18:12:40;6.90;;;5.90;;
38611;SDS011;24368;52.156;20.788;2023-03-24T18:17:42;7.30;;;5.10;;
38611;SDS011;24368;52.156;20.788;2023-03-24T18:22:43;5.10;;;3.80;;
38611;SDS011;24368;52.156;20.788;2023-03-24T18:27:46;4.30;;;3.90;;
38611;SDS011;24368;52.156;20.788;2023-03-24T18:32:48;4.10;;;3.80;;
38611;SDS011;24368;52.156;20.788;2023-03-24T18:37:49;6.00;;;3.80;;
38611;SDS011;24368;52.156;20.788;2023-03-24T18:42:51;4.70;;;3.90;;
38611;SDS011;24368;52.156;20.788;2023-03-24T18:47:53;5.80;;;5.20;;
38611;SDS011;24368;52.156;20.788;2023-03-24T18:52:55;5.80;;;4.90;;
38611;SDS011;24368;52.156;20.788;2023-03-24T18:57:57;4.50;;;4.10;;
38611;SDS011;24368;52.156;20.788;2023-03-24T19:02:59;5.40;;;4.50;;
38611;SDS011;24368;52.156;20.788;2023-03-24T19:08:01;4.50;;;4.10;;
38611;SDS011;24368;52.156;20.788;2023-03-24T19:13:08;5.50;;;5.00;;
38611;SDS011;24368;52.156;20.788;2023-03-24T19:18:11;6.70;;;6.10;;
38611;SDS011;24368;52.156;20.788;2023-03-24T19:23:14;6.90;;;6.30;;
38611;SDS011;24368;52.156;20.788;2023-03-24T19:28:16;6.50;;;5.80;;
38611;SDS011;24368;52.156;20.788;2023-03-24T19:33:18;6.50;;;5.90;;
38611;SDS011;24368;52.156;20.788;2023-03-24T19:38:20;6.70;;;6.10;;
38611;SDS011;24368;52.156;20.788;2023-03-24T19:43:24;6.60;;;6.00;;
38611;SDS011;24368;52.156;20.788;2023-03-24T19:48:26;7.00;;;6.30;;
38611;SDS011;24368;52.156;20.788;2023-03-24T19:53:27;8.80;;;8.00;;
38611;SDS011;24368;52.156;20.788;2023-03-24T19:58:29;8.30;;;7.50;;
38611;SDS011;24368;52.156;20.788;2023-03-24T20:03:31;7.80;;;7.00;;
38611;SDS011;24368;52.156;20.788;2023-03-24T20:08:36;8.90;;;8.00;;
38611;SDS011;24368;52.156;20.788;2023-03-24T20:13:39;9.90;;;8.90;;
38611;SDS011;24368;52.156;20.788;2023-03-24T20:18:41;8.70;;;7.90;;
38611;SDS011;24368;52.156;20.788;2023-03-24T20:23:44;8.60;;;7.70;;
38611;SDS011;24368;52.156;20.788;2023-03-24T20:28:46;7.00;;;6.30;;
38611;SDS011;24368;52.156;20.788;2023-03-24T20:33:49;9.00;;;7.60;;
38611;SDS011;24368;52.156;20.788;2023-03-24T20:38:51;8.70;;;7.50;;
38611;SDS011;24368;52.156;20.788;2023-03-24T20:43:53;11.90;;;10.70;;
38611;SDS011;24368;52.156;20.788;2023-03-24T20:48:55;8.80;;;7.90;;
38611;SDS011;24368;52.156;20.788;2023-03-24T20:54:04;9.40;;;7.90;;
38611;SDS011;24368;52.156;20.788;2023-03-24T20:59:08;9.20;;;7.70;;
38611;SDS011;24368;52.156;20.788;2023-03-24T21:04:10;7.70;;;6.90;;
38611;SDS011;24368;52.156;20.788;2023-03-24T21:09:12;8.90;;;8.00;;
38611;SDS011;24368;52.156;20.788;2023-03-24T21:14:14;10.00;;;9.00;;
38611;SDS011;24368;52.156;20.788;2023-03-24T21:19:15;10.30;;;9.30;;
38611;SDS011;24368;52.156;20.788;2023-03-24T21:24:24;10.00;;;9.00;;
38611;SDS011;24368;52.156;20.788;2023-03-24T21:29:30;8.30;;;7.40;;
38611;SDS011;24368;52.156;20.788;2023-03-24T21:34:33;7.50;;;6.50;;
38611;SDS011;24368;52.156;20.788;2023-03-24T21:39:36;7.70;;;6.40;;
38611;SDS011;24368;52.156;20.788;2023-03-24T21:44:43;6.30;;;5.70;;
38611;SDS011;24368;52.156;20.788;2023-03-24T21:49:47;4.80;;;4.30;;
38611;SDS011;24368;52.156;20.788;2023-03-24T21:55:00;4.40;;;4.00;;
38611;SDS011;24368;52.156;20.788;2023-03-24T22:00:04;5.40;;;4.30;;
38611;SDS011;24368;52.156;20.788;2023-03-24T22:05:22;7.70;;;6.80;;
38611;SDS011;24368;52.156;20.788;2023-03-24T22:10:26;5.00;;;4.10;;
38611;SDS011;24368;52.156;20.788;2023-03-24T22:15:36;5.40;;;4.30;;
38611;SDS011;24368;52.156;20.788;2023-03-24T22:20:40;5.10;;;4.60;;
38611;SDS011;24368;52.156;20.788;2023-03-24T22:25:44;7.40;;;5.50;;
38611;SDS011;24368;52.156;20.788;2023-03-24T22:35:53;4.70;;;3.70;;
38611;SDS011;24368;52.156;20.788;2023-03-24T22:41:00;5.20;;;4.20;;
38611;SDS011;24368;52.156;20.788;2023-03-24T22:46:13;4.00;;;3.50;;
38611;SDS011;24368;52.156;20.788;2023-03-24T22:51:16;4.00;;;3.60;;
38611;SDS011;24368;52.156;20.788;2023-03-24T22:56:19;5.70;;;4.00;;
38611;SDS011;24368;52.156;20.788;2023-03-24T23:01:22;4.20;;;3.80;;
38611;SDS011;24368;52.156;20.788;2023-03-24T23:06:24;4.80;;;3.90;;
38611;SDS011;24368;52.156;20.788;2023-03-24T23:11:29;4.90;;;4.30;;
38611;SDS011;24368;52.156;20.788;2023-03-24T23:16:33;5.20;;;4.60;;
38611;SDS011;24368;52.156;20.788;2023-03-24T23:21:38;4.10;;;3.60;;
38611;SDS011;24368;52.156;20.788;2023-03-24T23:26:41;4.50;;;3.70;;
38611;SDS011;24368;52.156;20.788;2023-03-24T23:31:43;4.50;;;4.10;;
38611;SDS011;24368;52.156;20.788;2023-03-24T23:36:45;4.50;;;4.10;;
38611;SDS011;24368;52.156;20.788;2023-03-24T23:41:51;4.20;;;3.60;;
38611;SDS011;24368;52.156;20.788;2023-03-24T23:46:52;4.60;;;4.20;;
38611;SDS011;24368;52.156;20.788;2023-03-24T23:51:54;5.50;;;3.90;;
38611;SDS011;24368;52.156;20.788;2023-03-24T23:56:56;5.00;;;4.00;;
